This is the latest recevied weather packets stored in our database for station/object TG5ALY-16. If no packets are shown the sender has not sent any weather packets the latest 10 day(s).
| Time | Temp. | Humidity | Pressure | Rain* | Wind** | Luminosity | Snow |
|---|---|---|---|---|---|---|---|
| 1777836501 | 19.44° C | 59% | 1016 hPa | 0 mm | - | - | - |
| 1777835900 | 19.44° C | 59% | 1016 hPa | 0 mm | - | - | - |
| 1777835300 | 19.44° C | 60% | 1016 hPa | 0 mm | - | - | - |
| 1777834699 | 19.44° C | 58% | 1016 hPa | 0 mm | - | - | - |
| 1777834098 | 19.44° C | 59% | 1016 hPa | 0 mm | - | - | - |
| 1777833498 | 18.89° C | 61% | 1016 hPa | 0 mm | - | - | - |
| 1777832897 | 18.89° C | 61% | 1016 hPa | 0 mm | - | - | - |
| 1777832296 | 19.44° C | 60% | 1016 hPa | 0 mm | - | - | - |
| 1777831696 | 19.44° C | 58% | 1016 hPa | 0 mm | - | - | - |
| 1777831095 | 21.11° C | 50% | 1016 hPa | 0 mm | - | - | - |
| 1777830494 | 20.56° C | 54% | 1016 hPa | 0 mm | - | - | - |
| 1777829893 | 19.44° C | 61% | 1016 hPa | 0 mm | - | - | - |
| 1777829293 | 19.44° C | 60% | 1017 hPa | 0 mm | - | - | - |
| 1777828692 | 19.44° C | 56% | 1017 hPa | 0 mm | - | - | - |
| 1777828091 | 19.44° C | 57% | 1017 hPa | 0 mm | - | - | - |
| 1777827491 | 19.44° C | 62% | 1017 hPa | 0 mm | - | - | - |
| 1777826890 | 19.44° C | 62% | 1017 hPa | 0 mm | - | - | - |
| 1777826290 | 19.44° C | 61% | 1017 hPa | 0 mm | - | - | - |
| 1777825689 | 19.44° C | 61% | 1017 hPa | 0 mm | - | - | - |
| 1777825088 | 18.89° C | 64% | 1017 hPa | 0 mm | - | - | - |
| 1777824488 | 18.89° C | 64% | 1017 hPa | 0 mm | - | - | - |
| 1777823887 | 18.33° C | 65% | 1018 hPa | 0 mm | - | - | - |
| 1777823286 | 17.78° C | 65% | 1018 hPa | 0 mm | - | - | - |
| 1777822686 | 17.78° C | 65% | 1018 hPa | 0 mm | - | - | - |
| 1777822085 | 17.78° C | 65% | 1017 hPa | 0 mm | - | - | - |
* Rain latest hour (hover to see other rain measurements)
** Current wind speed in m/s (hover to see current wind gust speed)